createdAt,value
2023-08-09T00:00:41.573Z,32.28
2023-08-09T00:01:41.555Z,32.31
2023-08-09T00:02:41.571Z,32.19
2023-08-09T00:03:41.633Z,32.20
2023-08-09T00:04:41.510Z,32.26
2023-08-09T00:05:41.521Z,32.32
2023-08-09T00:06:41.530Z,32.28
2023-08-09T00:07:41.494Z,32.25
2023-08-09T00:08:41.513Z,32.32
2023-08-09T00:09:41.495Z,32.34
2023-08-09T00:10:41.531Z,32.34
2023-08-09T00:11:41.483Z,32.25
2023-08-09T00:12:41.476Z,32.34
2023-08-09T00:13:41.469Z,32.25
2023-08-09T00:14:41.493Z,32.38
2023-08-09T00:15:41.542Z,32.27
2023-08-09T00:16:41.461Z,32.35
2023-08-09T00:17:41.461Z,32.28
2023-08-09T00:18:41.444Z,32.37
2023-08-09T00:19:41.482Z,32.37
2023-08-09T00:20:41.433Z,32.28
2023-08-09T00:21:41.403Z,32.32
2023-08-09T00:22:41.424Z,32.29
2023-08-09T00:23:41.408Z,32.31
2023-08-09T00:24:41.381Z,32.31
2023-08-09T00:25:41.390Z,32.34
2023-08-09T00:26:41.397Z,32.34
2023-08-09T00:27:41.423Z,32.32
2023-08-09T00:28:41.375Z,32.31
2023-08-09T00:29:41.359Z,32.34
2023-08-09T00:30:41.378Z,32.31
2023-08-09T00:31:41.373Z,32.34
2023-08-09T00:32:41.403Z,32.34
2023-08-09T00:33:41.339Z,32.32
2023-08-09T00:34:41.321Z,32.34
2023-08-09T00:35:41.338Z,32.38
2023-08-09T00:36:41.319Z,32.42
2023-08-09T00:37:41.315Z,32.41
2023-08-09T00:38:41.326Z,32.35
2023-08-09T00:39:41.296Z,32.42
2023-08-09T00:40:41.270Z,32.41
2023-08-09T00:41:41.283Z,32.42
2023-08-09T00:42:41.298Z,32.45
2023-08-09T00:43:41.276Z,32.39
2023-08-09T00:44:41.276Z,32.42
2023-08-09T00:45:41.282Z,32.42
2023-08-09T00:46:41.275Z,32.43
2023-08-09T00:47:41.261Z,32.46
2023-08-09T00:48:41.211Z,32.41
2023-08-09T00:49:41.236Z,32.48
2023-08-09T00:50:41.208Z,32.43
2023-08-09T00:51:41.219Z,32.41
2023-08-09T00:52:41.183Z,32.45
2023-08-09T00:53:41.188Z,32.48
2023-08-09T00:54:41.184Z,32.43
2023-08-09T00:55:41.212Z,32.49
2023-08-09T00:56:41.163Z,32.45
2023-08-09T00:57:41.178Z,32.48
2023-08-09T00:58:41.207Z,32.58
2023-08-09T00:59:41.165Z,32.43
2023-08-09T01:00:41.136Z,32.51
2023-08-09T01:01:41.148Z,32.52
2023-08-09T01:02:41.262Z,32.46
2023-08-09T01:03:41.103Z,32.45
2023-08-09T01:04:42.873Z,32.47
2023-08-09T01:05:41.125Z,32.49
2023-08-09T01:06:41.126Z,32.49
2023-08-09T01:07:41.139Z,32.48
2023-08-09T01:08:41.067Z,32.49
2023-08-09T01:09:41.065Z,32.49
2023-08-09T01:10:41.069Z,32.55
2023-08-09T01:11:41.045Z,32.46
2023-08-09T01:12:41.053Z,32.48
2023-08-09T01:13:41.035Z,32.50
2023-08-09T01:14:41.027Z,32.50
2023-08-09T01:15:41.166Z,32.51
2023-08-09T01:16:41.042Z,32.51
2023-08-09T01:17:41.070Z,32.49
2023-08-09T01:18:41.016Z,32.53
2023-08-09T01:19:41.018Z,32.54
2023-08-09T01:20:41.025Z,32.51
2023-08-09T01:21:41.020Z,32.56
2023-08-09T01:22:40.986Z,32.50
2023-08-09T01:23:40.995Z,32.56
2023-08-09T01:24:40.963Z,32.47
2023-08-09T01:25:40.985Z,32.50
2023-08-09T01:26:41.003Z,32.51
2023-08-09T01:27:40.983Z,32.51
2023-08-09T01:28:40.998Z,32.60
2023-08-09T01:29:41.015Z,32.50
2023-08-09T01:30:41.057Z,32.54
2023-08-09T01:31:41.058Z,32.53
2023-08-09T01:32:41.164Z,32.56
2023-08-09T01:33:41.078Z,32.56
2023-08-09T01:34:41.169Z,32.54
2023-08-09T01:35:41.123Z,32.54
2023-08-09T01:36:41.203Z,32.63
2023-08-09T01:37:41.160Z,32.61
2023-08-09T01:38:41.214Z,32.63
2023-08-09T01:39:41.185Z,32.73
2023-08-09T01:40:41.234Z,32.67
2023-08-09T01:41:41.263Z,32.74
2023-08-09T01:42:41.266Z,32.83
2023-08-09T01:43:41.276Z,32.89
2023-08-09T01:44:41.284Z,32.97
2023-08-09T01:45:41.302Z,32.90
2023-08-09T01:46:41.332Z,32.84
2023-08-09T01:47:41.487Z,32.87
2023-08-09T01:48:41.376Z,32.95
2023-08-09T01:49:41.377Z,32.83
2023-08-09T01:50:41.451Z,32.91
2023-08-09T01:51:41.417Z,32.97
2023-08-09T01:52:41.478Z,32.93
2023-08-09T01:53:41.466Z,33.00
2023-08-09T01:54:41.457Z,32.90
2023-08-09T01:55:41.521Z,33.01
2023-08-09T01:56:41.493Z,33.04
2023-08-09T01:57:41.513Z,32.97
2023-08-09T01:58:41.541Z,33.01
2023-08-09T01:59:41.556Z,32.94
2023-08-09T02:00:41.581Z,32.95
2023-08-09T02:01:41.584Z,32.97
2023-08-09T02:02:41.668Z,33.01
2023-08-09T02:03:41.646Z,32.94
2023-08-09T02:04:41.674Z,32.94
2023-08-09T02:05:41.676Z,32.95
2023-08-09T02:06:41.691Z,32.99
2023-08-09T02:07:41.732Z,33.00
2023-08-09T02:08:41.706Z,33.10
2023-08-09T02:09:41.748Z,33.13
2023-08-09T02:10:41.766Z,33.07
2023-08-09T02:11:41.752Z,33.14
2023-08-09T02:12:41.798Z,33.23
2023-08-09T02:13:41.798Z,33.21
2023-08-09T02:14:41.821Z,33.13
2023-08-09T02:15:41.843Z,33.26
2023-08-09T02:16:42.007Z,33.31
2023-08-09T02:17:41.918Z,33.31
2023-08-09T02:18:41.867Z,33.34
2023-08-09T02:19:41.900Z,33.31
2023-08-09T02:20:41.902Z,33.30
2023-08-09T02:21:41.961Z,33.37
2023-08-09T02:22:41.998Z,33.47
2023-08-09T02:23:41.967Z,33.53
2023-08-09T02:24:41.987Z,33.70
2023-08-09T02:25:41.985Z,33.66
2023-08-09T02:26:42.004Z,33.77
2023-08-09T02:27:42.030Z,33.79
2023-08-09T02:28:42.062Z,33.97
2023-08-09T02:29:42.053Z,34.01
2023-08-09T02:30:42.090Z,33.86
2023-08-09T02:31:42.102Z,33.79
2023-08-09T02:32:42.173Z,33.77
2023-08-09T02:33:42.135Z,33.81
2023-08-09T02:34:42.163Z,33.77
2023-08-09T02:35:42.191Z,33.72
2023-08-09T02:36:42.196Z,33.75
2023-08-09T02:37:42.215Z,33.83
2023-08-09T02:38:42.232Z,33.83
2023-08-09T02:39:42.237Z,33.87
2023-08-09T02:40:42.276Z,33.99
2023-08-09T02:41:42.287Z,34.03
2023-08-09T02:42:42.373Z,34.01
2023-08-09T02:43:42.392Z,34.15
2023-08-09T02:44:42.354Z,34.14
2023-08-09T02:45:42.342Z,34.22
2023-08-09T02:46:42.374Z,34.11
2023-08-09T02:47:42.367Z,34.34
2023-08-09T02:48:42.394Z,34.34
2023-08-09T02:49:42.444Z,34.26
2023-08-09T02:50:42.436Z,34.30
2023-08-09T02:51:42.457Z,34.31
2023-08-09T02:52:42.478Z,34.36
2023-08-09T02:53:42.495Z,34.31
2023-08-09T02:54:44.451Z,34.36
2023-08-09T02:55:42.532Z,34.38
2023-08-09T02:56:42.595Z,34.43
2023-08-09T02:57:42.548Z,34.35
2023-08-09T02:58:42.616Z,34.55
2023-08-09T02:59:42.598Z,34.59
2023-08-09T03:00:42.659Z,34.41
2023-08-09T03:01:42.678Z,34.72
2023-08-09T03:02:42.786Z,34.63
2023-08-09T03:03:42.802Z,34.68
2023-08-09T03:04:42.705Z,34.64
2023-08-09T03:05:42.722Z,34.68
2023-08-09T03:06:42.733Z,34.77
2023-08-09T03:07:42.745Z,34.77
2023-08-09T03:08:42.778Z,34.86
2023-08-09T03:09:42.800Z,34.85
2023-08-09T03:10:42.834Z,34.93
2023-08-09T03:11:42.833Z,34.84
2023-08-09T03:12:42.853Z,34.86
2023-08-09T03:13:42.871Z,35.03
2023-08-09T03:14:42.885Z,34.86
2023-08-09T03:15:42.905Z,35.01
2023-08-09T03:16:42.930Z,35.02
2023-08-09T03:17:42.994Z,35.02
2023-08-09T03:18:42.941Z,35.10
2023-08-09T03:19:42.963Z,35.17
2023-08-09T03:20:42.983Z,35.28
2023-08-09T03:21:42.995Z,35.15
2023-08-09T03:22:43.005Z,35.28
2023-08-09T03:23:43.043Z,35.10
2023-08-09T03:24:43.043Z,35.21
2023-08-09T03:25:43.082Z,35.33
2023-08-09T03:26:43.090Z,35.30
2023-08-09T03:27:43.126Z,35.33
2023-08-09T03:28:43.142Z,35.26
2023-08-09T03:29:43.158Z,35.34
2023-08-09T03:30:43.157Z,35.21
2023-08-09T03:31:43.254Z,35.33
2023-08-09T03:32:43.280Z,35.38
2023-08-09T03:33:43.251Z,35.29
2023-08-09T03:34:43.272Z,35.44
2023-08-09T03:35:43.321Z,35.40
2023-08-09T03:36:43.330Z,35.39
2023-08-09T03:37:43.361Z,35.50
2023-08-09T03:38:43.377Z,35.44
2023-08-09T03:39:43.386Z,35.32
2023-08-09T03:40:43.412Z,35.44
2023-08-09T03:41:43.448Z,35.43
2023-08-09T03:42:43.450Z,35.44
2023-08-09T03:43:43.524Z,35.52
2023-08-09T03:44:43.492Z,35.42
2023-08-09T03:45:43.576Z,35.54
2023-08-09T03:46:43.558Z,35.48
2023-08-09T03:47:43.630Z,35.52
2023-08-09T03:48:43.664Z,35.50
2023-08-09T03:49:43.631Z,35.52
2023-08-09T03:50:43.652Z,35.57
2023-08-09T03:51:43.664Z,35.57
2023-08-09T03:52:43.721Z,35.55
2023-08-09T03:53:43.753Z,35.51
2023-08-09T03:54:43.768Z,35.55
2023-08-09T03:55:43.806Z,35.64
2023-08-09T03:56:43.807Z,35.52
2023-08-09T03:57:43.811Z,35.57
2023-08-09T03:58:43.881Z,35.52
2023-08-09T03:59:43.864Z,35.44
2023-08-09T04:00:43.901Z,35.47
2023-08-09T04:01:43.967Z,35.46
2023-08-09T04:02:43.962Z,35.50
2023-08-09T04:03:43.995Z,35.46
2023-08-09T04:04:44.038Z,35.44
2023-08-09T04:05:44.028Z,35.43
2023-08-09T04:06:44.048Z,35.39
2023-08-09T04:07:44.073Z,35.48
2023-08-09T04:08:44.114Z,35.47
2023-08-09T04:09:44.135Z,35.50
2023-08-09T04:10:44.179Z,35.48
2023-08-09T04:11:44.176Z,35.54
2023-08-09T04:12:44.213Z,35.50
2023-08-09T04:13:44.226Z,35.57
2023-08-09T04:14:44.263Z,35.52
2023-08-09T04:15:44.281Z,35.52
2023-08-09T04:16:44.286Z,35.64
2023-08-09T04:17:44.351Z,35.63
2023-08-09T04:18:44.374Z,35.60
2023-08-09T04:19:44.428Z,35.60
2023-08-09T04:20:44.463Z,35.60
2023-08-09T04:21:44.460Z,35.71
2023-08-09T04:22:44.442Z,35.60
2023-08-09T04:23:44.469Z,35.60
2023-08-09T04:24:44.489Z,35.59
2023-08-09T04:25:44.520Z,35.56
2023-08-09T04:26:44.510Z,35.56
2023-08-09T04:27:44.537Z,35.49
2023-08-09T04:28:44.561Z,35.44
2023-08-09T04:29:44.599Z,35.43
2023-08-09T04:30:44.605Z,35.40
2023-08-09T04:31:44.646Z,35.42
2023-08-09T04:32:44.695Z,35.40
2023-08-09T04:33:44.669Z,35.44
2023-08-09T04:34:44.706Z,35.44
2023-08-09T04:35:44.700Z,35.49
2023-08-09T04:36:44.701Z,35.55
2023-08-09T04:37:44.742Z,35.54
2023-08-09T04:38:44.760Z,35.57
2023-08-09T04:39:44.791Z,35.48
2023-08-09T04:40:44.822Z,35.55
2023-08-09T04:41:44.877Z,35.49
2023-08-09T04:42:44.867Z,35.69
2023-08-09T04:43:44.900Z,35.69
2023-08-09T04:44:44.927Z,35.72
2023-08-09T04:45:44.962Z,35.69
2023-08-09T04:46:44.956Z,35.73
2023-08-09T04:47:45.026Z,35.85
2023-08-09T04:48:44.975Z,35.91
2023-08-09T04:49:45.045Z,35.87
2023-08-09T04:50:45.032Z,35.96
2023-08-09T04:51:45.121Z,35.90
2023-08-09T04:52:45.084Z,35.93
2023-08-09T04:53:45.102Z,35.98
2023-08-09T04:54:45.146Z,36.01
2023-08-09T04:55:45.173Z,36.02
2023-08-09T04:56:45.184Z,36.00
2023-08-09T04:57:45.202Z,36.06
2023-08-09T04:58:45.198Z,36.09
2023-08-09T04:59:45.232Z,36.09
2023-08-09T05:00:45.270Z,36.02
2023-08-09T05:01:45.309Z,36.06
2023-08-09T05:02:45.310Z,36.14
2023-08-09T05:03:45.333Z,36.09
2023-08-09T05:04:45.364Z,36.14
2023-08-09T05:05:45.355Z,36.20
2023-08-09T05:06:45.392Z,36.20
2023-08-09T05:07:45.443Z,36.21
2023-08-09T05:08:45.435Z,36.22
2023-08-09T05:09:45.485Z,36.25
2023-08-09T05:10:45.459Z,36.36
2023-08-09T05:11:45.512Z,36.27
2023-08-09T05:12:45.539Z,36.37
2023-08-09T05:13:45.593Z,36.46
2023-08-09T05:14:45.624Z,36.39
2023-08-09T05:15:45.619Z,36.42
2023-08-09T05:16:45.670Z,36.34
2023-08-09T05:17:45.705Z,36.50
2023-08-09T05:18:45.692Z,36.38
2023-08-09T05:19:45.732Z,36.42
2023-08-09T05:20:45.746Z,36.42
2023-08-09T05:21:45.756Z,36.39
2023-08-09T05:22:45.786Z,36.39
2023-08-09T05:23:45.813Z,36.42
2023-08-09T05:24:45.858Z,36.33
2023-08-09T05:25:45.873Z,36.33
2023-08-09T05:26:45.898Z,36.42
2023-08-09T05:27:45.910Z,36.30
2023-08-09T05:28:45.933Z,36.45
2023-08-09T05:29:45.944Z,36.38
2023-08-09T05:30:45.982Z,36.38
2023-08-09T05:31:45.988Z,36.37
2023-08-09T05:32:46.008Z,36.43
2023-08-09T05:33:46.020Z,36.38
2023-08-09T05:34:46.025Z,36.33
2023-08-09T05:35:46.066Z,36.42
2023-08-09T05:36:46.083Z,36.46
2023-08-09T05:37:46.097Z,36.62
2023-08-09T05:38:46.096Z,36.55
2023-08-09T05:39:48.000Z,36.49
2023-08-09T05:40:46.157Z,36.63
2023-08-09T05:41:46.182Z,36.63
2023-08-09T05:42:46.213Z,36.66
2023-08-09T05:43:46.214Z,36.66
2023-08-09T05:44:46.245Z,36.71
2023-08-09T05:45:46.262Z,36.78
2023-08-09T05:46:46.338Z,36.83
2023-08-09T05:47:46.303Z,36.83
2023-08-09T05:48:46.335Z,36.77
2023-08-09T05:49:46.316Z,36.85
2023-08-09T05:50:46.379Z,36.79
2023-08-09T05:51:46.378Z,36.82
2023-08-09T05:52:46.403Z,36.80
2023-08-09T05:53:46.397Z,36.78
2023-08-09T05:54:46.445Z,36.68
2023-08-09T05:55:46.433Z,36.58
2023-08-09T05:56:46.465Z,36.62
2023-08-09T05:57:46.480Z,36.60
2023-08-09T05:58:46.499Z,36.49
2023-08-09T05:59:46.505Z,36.55
2023-08-09T06:00:46.592Z,36.49
2023-08-09T06:01:46.544Z,36.46
2023-08-09T06:02:46.693Z,36.45
2023-08-09T06:03:46.665Z,36.46
2023-08-09T06:04:46.576Z,36.41
2023-08-09T06:05:46.595Z,36.50
2023-08-09T06:06:46.608Z,36.43
2023-08-09T06:07:46.612Z,36.43
2023-08-09T06:08:46.643Z,36.40
2023-08-09T06:09:46.653Z,36.41
2023-08-09T06:10:46.738Z,36.40
2023-08-09T06:11:46.723Z,36.40
2023-08-09T06:12:46.689Z,36.32
2023-08-09T06:13:46.715Z,36.39
2023-08-09T06:14:46.736Z,36.33
2023-08-09T06:15:46.742Z,36.35
2023-08-09T06:16:46.838Z,36.28
2023-08-09T06:17:46.813Z,36.29
2023-08-09T06:18:46.829Z,36.29
2023-08-09T06:19:46.796Z,36.29
2023-08-09T06:20:46.832Z,36.27
2023-08-09T06:21:46.840Z,36.33
2023-08-09T06:22:46.851Z,36.25
2023-08-09T06:23:46.878Z,36.27
2023-08-09T06:24:46.883Z,36.32
2023-08-09T06:25:46.921Z,36.29
2023-08-09T06:26:46.928Z,36.40
2023-08-09T06:27:46.920Z,36.44
2023-08-09T06:28:46.963Z,36.37
2023-08-09T06:29:46.953Z,36.66
2023-08-09T06:30:47.044Z,36.52
2023-08-09T06:31:47.023Z,36.72
2023-08-09T06:32:47.055Z,36.63
2023-08-09T06:33:47.017Z,36.54
2023-08-09T06:34:47.084Z,36.81
2023-08-09T06:35:47.076Z,36.74
2023-08-09T06:36:47.133Z,36.74
2023-08-09T06:37:47.335Z,36.60
2023-08-09T06:38:47.113Z,36.79
2023-08-09T06:39:47.140Z,36.68
2023-08-09T06:40:47.179Z,36.86
2023-08-09T06:41:47.189Z,36.71
2023-08-09T06:42:48.071Z,36.73
2023-08-09T06:43:47.208Z,36.89
2023-08-09T06:44:47.217Z,36.74
2023-08-09T06:45:47.243Z,36.75
2023-08-09T06:46:47.247Z,36.63
2023-08-09T06:47:47.297Z,36.65
2023-08-09T06:48:47.263Z,36.72
2023-08-09T06:49:47.280Z,36.68
2023-08-09T06:50:47.305Z,36.66
2023-08-09T06:51:47.362Z,36.74
2023-08-09T06:52:47.353Z,36.76
2023-08-09T06:53:47.373Z,36.72
2023-08-09T06:54:51.337Z,36.73
2023-08-09T06:55:48.482Z,36.69
2023-08-09T06:56:47.413Z,36.76
2023-08-09T06:57:47.366Z,36.73
2023-08-09T06:58:47.363Z,36.77
2023-08-09T06:59:47.348Z,36.78
2023-08-09T07:00:47.371Z,36.79
2023-08-09T07:01:47.332Z,36.76
2023-08-09T07:02:48.962Z,36.82
2023-08-09T07:03:47.338Z,36.77
2023-08-09T07:04:47.319Z,36.81
2023-08-09T07:05:47.311Z,36.84
2023-08-09T07:06:47.306Z,36.89
2023-08-09T07:07:47.300Z,36.85
2023-08-09T07:08:47.278Z,36.89
2023-08-09T07:09:47.283Z,36.95
2023-08-09T07:10:47.279Z,36.89
2023-08-09T07:11:47.326Z,37.12
2023-08-09T07:12:47.257Z,37.09
2023-08-09T07:13:47.236Z,37.01
2023-08-09T07:14:47.251Z,37.12
2023-08-09T07:15:47.229Z,36.94
2023-08-09T07:16:47.231Z,36.90
2023-08-09T07:17:47.267Z,36.93
2023-08-09T07:18:47.225Z,36.95
2023-08-09T07:19:47.218Z,36.99
2023-08-09T07:20:47.245Z,36.95
2023-08-09T07:21:47.260Z,36.92
2023-08-09T07:22:47.306Z,36.90
2023-08-09T07:23:57.592Z,36.91
2023-08-09T07:24:48.274Z,36.91
2023-08-09T07:25:47.317Z,36.86
2023-08-09T07:26:47.264Z,36.86
2023-08-09T07:27:47.251Z,36.82
2023-08-09T07:28:47.257Z,36.86
2023-08-09T07:29:47.251Z,36.78
2023-08-09T07:30:47.243Z,36.82
2023-08-09T07:31:47.298Z,36.82
2023-08-09T07:32:47.286Z,36.74
2023-08-09T07:33:47.229Z,36.76
2023-08-09T07:34:47.217Z,36.77
2023-08-09T07:35:47.207Z,36.77
2023-08-09T07:36:47.203Z,36.82
2023-08-09T07:37:47.179Z,36.75
2023-08-09T07:38:47.188Z,36.80
2023-08-09T07:39:47.181Z,36.73
2023-08-09T07:40:47.176Z,36.76
2023-08-09T07:41:47.157Z,36.78
2023-08-09T07:42:47.187Z,36.75
2023-08-09T07:43:47.156Z,36.75
2023-08-09T07:44:47.154Z,36.74
2023-08-09T07:45:47.191Z,36.70
2023-08-09T07:46:47.133Z,36.74
2023-08-09T07:47:47.162Z,36.74
2023-08-09T07:48:47.154Z,36.71
2023-08-09T07:49:47.138Z,36.74
2023-08-09T07:50:47.200Z,36.74
2023-08-09T07:51:47.179Z,36.73
2023-08-09T07:52:47.205Z,36.76
2023-08-09T07:53:47.208Z,36.69
2023-08-09T07:54:47.243Z,36.68
2023-08-09T07:55:47.274Z,36.69
2023-08-09T07:56:47.281Z,36.70
2023-08-09T07:57:47.297Z,36.64
2023-08-09T07:58:47.319Z,36.73
2023-08-09T07:59:47.354Z,36.70
2023-08-09T08:00:50.181Z,36.69
2023-08-09T08:01:47.406Z,36.70
2023-08-09T08:02:47.414Z,36.69
2023-08-09T08:03:47.360Z,36.73
2023-08-09T08:04:47.327Z,36.75
2023-08-09T08:05:48.925Z,36.76
2023-08-09T08:06:47.324Z,36.80
2023-08-09T08:07:47.313Z,36.85
2023-08-09T08:08:47.291Z,36.79
2023-08-09T08:09:47.320Z,36.81
2023-08-09T08:10:47.272Z,36.80
2023-08-09T08:11:47.312Z,36.86
2023-08-09T08:12:47.329Z,36.90
2023-08-09T08:13:47.301Z,36.87
2023-08-09T08:14:47.258Z,36.87
2023-08-09T08:15:47.296Z,36.83
2023-08-09T08:16:47.241Z,36.84
2023-08-09T08:17:47.317Z,36.88
2023-08-09T08:18:47.220Z,36.88
2023-08-09T08:19:47.237Z,36.87
2023-08-09T08:20:47.254Z,36.82
2023-08-09T08:21:47.233Z,36.88
2023-08-09T08:22:47.255Z,36.85
2023-08-09T08:23:47.263Z,36.83
2023-08-09T08:24:47.282Z,36.88
2023-08-09T08:25:47.325Z,36.87
2023-08-09T08:26:47.328Z,36.86
2023-08-09T08:27:47.391Z,36.87
2023-08-09T08:28:47.380Z,36.83
2023-08-09T08:29:47.371Z,36.87
2023-08-09T08:30:47.404Z,36.90
2023-08-09T08:31:47.430Z,36.87
2023-08-09T08:32:47.690Z,36.86
2023-08-09T08:33:47.431Z,36.82
2023-08-09T08:34:47.507Z,36.82
2023-08-09T08:35:48.925Z,36.81
2023-08-09T08:36:47.484Z,36.81
2023-08-09T08:37:47.546Z,36.77
2023-08-09T08:38:47.544Z,36.77
2023-08-09T08:39:47.539Z,36.72
2023-08-09T08:40:47.540Z,36.76
2023-08-09T08:41:47.545Z,36.76
2023-08-09T08:42:47.566Z,36.71
2023-08-09T08:43:47.599Z,36.73
2023-08-09T08:44:47.585Z,36.71
2023-08-09T08:45:47.664Z,36.72
2023-08-09T08:46:47.627Z,36.75
2023-08-09T08:47:47.647Z,36.77
2023-08-09T08:48:47.675Z,36.72
2023-08-09T08:49:47.668Z,36.73
2023-08-09T08:50:47.668Z,36.74
2023-08-09T08:51:47.703Z,36.76
2023-08-09T08:52:47.687Z,36.77
2023-08-09T08:53:47.729Z,36.68
2023-08-09T08:54:47.745Z,36.77
2023-08-09T08:55:47.803Z,36.77
2023-08-09T08:56:47.761Z,36.76
2023-08-09T08:57:47.763Z,36.83
2023-08-09T08:58:47.786Z,36.88
2023-08-09T08:59:47.797Z,36.84
2023-08-09T09:00:47.784Z,36.80
2023-08-09T09:01:47.835Z,36.84
2023-08-09T09:02:47.927Z,36.87
2023-08-09T09:03:47.914Z,36.87
2023-08-09T09:04:47.865Z,36.83
2023-08-09T09:05:47.884Z,36.87
2023-08-09T09:06:47.903Z,36.87
2023-08-09T09:07:47.892Z,36.88
2023-08-09T09:08:47.920Z,36.81
2023-08-09T09:09:47.926Z,36.87
2023-08-09T09:10:47.937Z,36.92
2023-08-09T09:11:47.975Z,36.86
2023-08-09T09:12:47.975Z,36.87
2023-08-09T09:13:47.989Z,36.89
2023-08-09T09:14:48.057Z,36.87
2023-08-09T09:15:48.062Z,36.85
2023-08-09T09:16:48.042Z,36.82
2023-08-09T09:17:48.089Z,36.79
2023-08-09T09:18:48.072Z,36.79
2023-08-09T09:19:48.056Z,36.81
2023-08-09T09:20:48.070Z,36.80
2023-08-09T09:21:48.075Z,36.84
2023-08-09T09:22:48.094Z,36.82
2023-08-09T09:23:48.152Z,36.85
2023-08-09T09:24:48.110Z,36.88
2023-08-09T09:25:48.114Z,36.85
2023-08-09T09:26:48.117Z,36.91
2023-08-09T09:27:48.155Z,36.93
2023-08-09T09:28:48.146Z,36.98
2023-08-09T09:29:48.161Z,37.06
2023-08-09T09:30:48.177Z,37.06
2023-08-09T09:31:48.217Z,37.30
2023-08-09T09:32:48.281Z,37.26
2023-08-09T09:33:48.245Z,37.41
2023-08-09T09:34:48.248Z,38.08
2023-08-09T09:35:48.273Z,37.65
2023-08-09T09:36:48.286Z,37.57
2023-08-09T09:37:48.282Z,37.74
2023-08-09T09:38:48.296Z,37.79
2023-08-09T09:39:48.333Z,37.70
2023-08-09T09:40:48.309Z,37.65
2023-08-09T09:41:48.359Z,37.66
2023-08-09T09:42:48.352Z,37.94
2023-08-09T09:43:48.358Z,37.90
2023-08-09T09:44:48.376Z,37.82
2023-08-09T09:45:48.387Z,37.68
2023-08-09T09:46:48.441Z,37.74
2023-08-09T09:47:48.460Z,37.73
2023-08-09T09:48:48.410Z,37.84
2023-08-09T09:49:48.468Z,37.73
2023-08-09T09:50:48.429Z,37.69
2023-08-09T09:51:48.430Z,37.76
2023-08-09T09:52:48.445Z,37.65
2023-08-09T09:53:48.441Z,37.73
2023-08-09T09:54:48.460Z,37.69
2023-08-09T09:55:48.485Z,37.63
2023-08-09T09:56:48.501Z,37.71
2023-08-09T09:57:48.494Z,37.64
2023-08-09T09:58:48.503Z,37.67
2023-08-09T09:59:48.504Z,37.65
2023-08-09T10:00:48.566Z,37.72
2023-08-09T10:01:48.534Z,37.80
2023-08-09T10:02:48.590Z,37.79
2023-08-09T10:03:53.501Z,37.83
2023-08-09T10:04:49.607Z,37.88
2023-08-09T10:05:48.563Z,37.84
2023-08-09T10:06:48.571Z,37.93
2023-08-09T10:07:53.058Z,37.95
2023-08-09T10:08:49.540Z,37.99
2023-08-09T10:09:48.532Z,37.91
2023-08-09T10:10:48.551Z,37.93
2023-08-09T10:11:48.537Z,37.96
2023-08-09T10:12:48.509Z,37.96
2023-08-09T10:13:48.510Z,37.88
2023-08-09T10:14:48.515Z,37.97
2023-08-09T10:15:48.504Z,38.04
2023-08-09T10:16:48.560Z,38.08
2023-08-09T10:17:48.513Z,38.08
2023-08-09T10:18:48.482Z,37.97
2023-08-09T10:19:48.464Z,38.01
2023-08-09T10:20:48.535Z,38.13
2023-08-09T10:21:48.441Z,38.11
2023-08-09T10:22:48.420Z,38.06
2023-08-09T10:23:48.448Z,38.11
2023-08-09T10:24:48.425Z,38.06
2023-08-09T10:25:48.437Z,38.10
2023-08-09T10:26:48.390Z,38.07
2023-08-09T10:27:48.417Z,38.04
2023-08-09T10:28:48.434Z,38.06
2023-08-09T10:29:48.495Z,38.04
2023-08-09T10:30:48.475Z,38.09
2023-08-09T10:31:48.519Z,38.13
2023-08-09T10:32:48.541Z,38.16
2023-08-09T10:33:48.363Z,38.08
2023-08-09T10:34:48.338Z,38.11
2023-08-09T10:35:48.356Z,38.15
2023-08-09T10:36:48.331Z,38.15
2023-08-09T10:37:48.323Z,38.14
2023-08-09T10:38:49.358Z,38.10
2023-08-09T10:39:48.332Z,38.09
2023-08-09T10:40:48.302Z,38.11
2023-08-09T10:41:48.313Z,38.17
2023-08-09T10:42:48.328Z,38.17
2023-08-09T10:43:48.306Z,38.21
2023-08-09T10:44:48.283Z,38.22
2023-08-09T10:45:48.279Z,38.25
2023-08-09T10:46:48.336Z,38.29
2023-08-09T10:47:48.335Z,38.19
2023-08-09T10:48:48.297Z,38.22
2023-08-09T10:49:48.294Z,38.14
2023-08-09T10:50:50.358Z,38.16
2023-08-09T10:51:48.437Z,38.21
2023-08-09T10:52:48.421Z,38.13
2023-08-09T10:53:48.440Z,38.14
2023-08-09T10:54:48.481Z,38.14
2023-08-09T10:55:48.447Z,38.18
2023-08-09T10:56:48.437Z,38.16
2023-08-09T10:57:48.472Z,38.20
2023-08-09T10:58:48.482Z,38.16
2023-08-09T10:59:48.447Z,38.20
2023-08-09T11:00:48.514Z,38.20
2023-08-09T11:01:48.489Z,38.19
2023-08-09T11:02:48.560Z,38.13
2023-08-09T11:03:48.654Z,38.21
2023-08-09T11:04:48.481Z,38.18
2023-08-09T11:05:48.523Z,38.18
2023-08-09T11:06:48.520Z,38.19
2023-08-09T11:07:48.489Z,38.25
2023-08-09T11:08:48.502Z,38.22
2023-08-09T11:09:48.530Z,38.24
2023-08-09T11:10:48.530Z,38.24
2023-08-09T11:11:48.553Z,38.25
2023-08-09T11:12:48.539Z,38.29
2023-08-09T11:13:56.046Z,38.23
2023-08-09T11:14:49.552Z,38.29
2023-08-09T11:15:48.599Z,38.27
2023-08-09T11:16:48.602Z,38.28
2023-08-09T11:17:48.556Z,38.28
2023-08-09T11:18:48.518Z,38.22
2023-08-09T11:19:48.513Z,38.26
2023-08-09T11:20:48.492Z,38.26
2023-08-09T11:21:48.507Z,38.24
2023-08-09T11:22:48.471Z,38.28
2023-08-09T11:23:48.466Z,38.36
2023-08-09T11:24:48.465Z,38.39
2023-08-09T11:25:48.517Z,38.37
2023-08-09T11:26:48.468Z,38.41
2023-08-09T11:27:48.461Z,38.39
2023-08-09T11:28:48.426Z,38.39
2023-08-09T11:29:48.468Z,38.39
2023-08-09T11:30:48.448Z,38.43
2023-08-09T11:31:48.434Z,38.42
2023-08-09T11:32:48.454Z,38.36
2023-08-09T11:33:48.425Z,38.53
2023-08-09T11:34:48.405Z,38.49
2023-08-09T11:35:48.407Z,38.50
2023-08-09T11:36:48.411Z,38.58
2023-08-09T11:37:48.385Z,38.50
2023-08-09T11:38:48.405Z,38.53
2023-08-09T11:39:48.392Z,38.51
2023-08-09T11:40:48.402Z,38.51
2023-08-09T11:41:51.345Z,38.47
2023-08-09T11:42:48.392Z,38.53
2023-08-09T11:43:48.354Z,38.46
2023-08-09T11:44:48.362Z,38.58
2023-08-09T11:45:48.375Z,38.51
2023-08-09T11:46:48.358Z,38.57
2023-08-09T11:47:48.366Z,38.62
2023-08-09T11:48:48.321Z,38.65
2023-08-09T11:49:48.325Z,38.73
2023-08-09T11:50:48.301Z,38.63
2023-08-09T11:51:48.307Z,38.70
2023-08-09T11:52:50.102Z,38.68
2023-08-09T11:53:48.299Z,38.61
2023-08-09T11:54:48.285Z,38.69
2023-08-09T11:55:48.293Z,38.74
2023-08-09T11:56:48.251Z,38.74
2023-08-09T11:57:48.244Z,38.80
2023-08-09T11:58:48.306Z,38.82
2023-08-09T11:59:48.257Z,38.77
2023-08-09T12:00:48.257Z,38.79
2023-08-09T12:01:48.259Z,38.78
2023-08-09T12:02:48.264Z,38.87
2023-08-09T12:03:48.242Z,38.82
2023-08-09T12:04:48.215Z,38.82
2023-08-09T12:05:53.878Z,38.89
2023-08-09T12:06:49.207Z,38.81
2023-08-09T12:07:48.203Z,38.84
2023-08-09T12:08:48.190Z,38.89
2023-08-09T12:09:48.187Z,38.87
2023-08-09T12:10:48.189Z,38.92
2023-08-09T12:11:48.222Z,38.82
2023-08-09T12:12:48.169Z,38.81
2023-08-09T12:13:48.161Z,38.88
2023-08-09T12:14:48.169Z,38.84
2023-08-09T12:15:48.156Z,38.86
2023-08-09T12:16:48.170Z,38.88
2023-08-09T12:17:48.148Z,38.88
2023-08-09T12:18:48.154Z,38.92
2023-08-09T12:19:48.120Z,38.92
2023-08-09T12:20:48.146Z,38.99
2023-08-09T12:21:48.102Z,39.11
2023-08-09T12:22:48.115Z,39.07
2023-08-09T12:23:48.098Z,39.08
2023-08-09T12:24:48.085Z,39.27
2023-08-09T12:25:48.081Z,39.24
2023-08-09T12:26:48.092Z,39.32
2023-08-09T12:27:48.062Z,39.37
2023-08-09T12:28:49.164Z,39.34
2023-08-09T12:29:48.056Z,39.37
2023-08-09T12:30:48.075Z,39.42
2023-08-09T12:31:48.079Z,39.33
2023-08-09T12:32:48.105Z,39.52
2023-08-09T12:33:48.035Z,39.51
2023-08-09T12:34:48.041Z,39.57
2023-08-09T12:35:48.011Z,39.50
2023-08-09T12:36:48.023Z,39.59
2023-08-09T12:37:48.016Z,39.59
2023-08-09T12:38:48.007Z,39.66
2023-08-09T12:39:47.984Z,39.79
2023-08-09T12:40:47.977Z,39.89
2023-08-09T12:41:47.973Z,39.76
2023-08-09T12:42:48.001Z,39.75
2023-08-09T12:43:47.954Z,39.79
2023-08-09T12:44:47.949Z,39.81
2023-08-09T12:45:48.025Z,39.92
2023-08-09T12:46:47.980Z,39.91
2023-08-09T12:47:47.989Z,40.01
2023-08-09T12:48:47.950Z,40.03
2023-08-09T12:49:47.914Z,40.04
2023-08-09T12:50:47.916Z,40.04
2023-08-09T12:51:47.893Z,40.04
2023-08-09T12:52:55.382Z,40.02